Time;durP1;ratioP1;P1;durP2;ratioP2;P2;SDS_P1;SDS_P2;PMS_P1;PMS_P2;Temp;Humidity;BMP_temperature;BMP_pressure;BME280_temperature;BME280_humidity;BME280_pressure;Samples;Min_cycle;Max_cycle;Signal;HPM_P1;HPM_P2
2023/07/01 00:00:57;;;;;;;7.25;3.45;;;17.70;99.90;;;;;;5062702;28;20037;-62
2023/07/01 00:03:23;;;;;;;9.43;3.70;;;17.60;99.90;;;;;;5072849;28;20082;-62
2023/07/01 00:05:49;;;;;;;9.68;3.65;;;17.70;99.90;;;;;;5067336;28;20157;-62
2023/07/01 00:08:15;;;;;;;6.65;3.30;;;17.70;99.90;;;;;;5065334;28;20035;-62
2023/07/01 00:10:40;;;;;;;8.45;3.63;;;17.70;99.90;;;;;;5072693;28;20032;-63
2023/07/01 00:13:06;;;;;;;6.50;3.30;;;17.70;99.90;;;;;;5073256;28;20036;-62
2023/07/01 00:15:31;;;;;;;9.48;3.42;;;17.70;99.90;;;;;;5068396;28;20390;-64
2023/07/01 00:17:57;;;;;;;7.07;3.58;;;17.70;99.90;;;;;;5072334;28;20486;-62
2023/07/01 00:20:26;;;;;;;6.10;3.28;;;17.70;99.90;;;;;;5072734;28;20033;-62
2023/07/01 00:22:52;;;;;;;7.75;3.30;;;17.70;99.90;;;;;;5068250;28;20044;-62
2023/07/01 00:25:18;;;;;;;9.88;3.40;;;17.60;99.90;;;;;;5045227;28;20101;-62
2023/07/01 00:27:44;;;;;;;8.48;3.15;;;17.60;99.90;;;;;;5071886;28;20050;-63
2023/07/01 00:30:10;;;;;;;7.45;3.05;;;17.70;99.90;;;;;;5072639;28;20044;-62
2023/07/01 00:32:36;;;;;;;7.93;3.10;;;17.70;99.90;;;;;;5061592;28;20521;-62
2023/07/01 00:35:01;;;;;;;9.15;3.40;;;17.70;99.90;;;;;;5072427;28;20032;-63
2023/07/01 00:37:28;;;;;;;7.60;3.05;;;17.70;99.90;;;;;;5072243;28;20048;-63
2023/07/01 00:39:53;;;;;;;8.05;3.00;;;17.60;99.90;;;;;;5055190;28;20037;-63
2023/07/01 00:42:19;;;;;;;9.90;3.30;;;17.60;99.90;;;;;;5059819;28;20514;-62
2023/07/01 00:44:44;;;;;;;11.38;3.35;;;17.60;99.90;;;;;;5071975;28;20036;-62
2023/07/01 00:47:10;;;;;;;7.28;3.20;;;17.70;99.90;;;;;;5061859;28;20110;-63
2023/07/01 00:49:38;;;;;;;10.95;3.38;;;17.70;99.90;;;;;;5069683;28;20036;-62
2023/07/01 00:52:04;;;;;;;7.40;3.60;;;17.70;99.90;;;;;;5071968;28;20441;-62
2023/07/01 00:54:30;;;;;;;10.18;3.65;;;17.80;99.90;;;;;;5072488;28;20040;-62
2023/07/01 00:56:56;;;;;;;8.65;3.22;;;17.80;99.90;;;;;;5040879;28;20561;-63
2023/07/01 00:59:21;;;;;;;7.43;3.28;;;17.80;99.90;;;;;;5071221;28;20512;-62
2023/07/01 01:01:51;;;;;;;6.90;2.97;;;17.80;99.90;;;;;;5072194;28;20047;-62
2023/07/01 01:04:34;;;;;;;6.30;3.30;;;17.90;99.90;;;;;;5061984;28;20040;-62
2023/07/01 01:07:11;;;;;;;7.57;3.22;;;17.90;99.90;;;;;;5053460;28;20040;-63
2023/07/01 01:09:47;;;;;;;7.90;3.28;;;18.00;99.90;;;;;;5070732;28;20040;-62
2023/07/01 01:12:14;;;;;;;9.40;3.55;;;17.90;99.90;;;;;;5050429;28;20044;-62
2023/07/01 01:14:42;;;;;;;7.40;3.40;;;17.90;99.90;;;;;;5060109;28;20063;-62
2023/07/01 01:17:14;;;;;;;6.70;3.42;;;17.90;99.90;;;;;;5071657;28;20066;-63
2023/07/01 01:19:54;;;;;;;11.80;3.20;;;17.90;99.90;;;;;;5071639;28;20035;-62
2023/07/01 01:22:34;;;;;;;5.68;3.67;;;17.90;99.90;;;;;;5068066;28;20215;-62
2023/07/01 01:25:05;;;;;;;8.50;3.45;;;17.90;99.90;;;;;;5057568;28;20040;-63
2023/07/01 01:27:41;;;;;;;7.93;3.88;;;17.90;99.90;;;;;;5071108;28;20040;-63
2023/07/01 01:30:07;;;;;;;9.40;3.65;;;17.90;99.90;;;;;;5055490;28;20112;-62
2023/07/01 01:32:34;;;;;;;6.38;3.45;;;17.90;99.90;;;;;;5061089;28;20047;-62
2023/07/01 01:35:00;;;;;;;8.82;3.63;;;18.00;99.90;;;;;;5061009;28;20045;-62
2023/07/01 01:37:53;;;;;;;10.23;3.78;;;18.00;99.90;;;;;;5053804;28;20053;-62
2023/07/01 01:40:53;;;;;;;7.80;3.80;;;18.00;99.90;;;;;;5056813;28;20056;-63
2023/07/01 01:43:27;;;;;;;6.18;3.72;;;18.00;99.90;;;;;;5066786;28;20044;-62
2023/07/01 01:45:54;;;;;;;8.65;4.30;;;18.10;99.90;;;;;;5063182;28;20041;-62
2023/07/01 01:48:20;;;;;;;6.80;3.90;;;18.00;99.90;;;;;;5063961;28;20043;-63
2023/07/01 01:50:49;;;;;;;7.13;3.65;;;18.00;99.90;;;;;;5070931;28;20036;-62
2023/07/01 01:53:15;;;;;;;9.13;4.22;;;17.90;99.90;;;;;;5071139;28;20044;-63
2023/07/01 01:55:42;;;;;;;12.48;4.07;;;17.90;99.90;;;;;;5061037;28;20053;-62
2023/07/01 01:58:08;;;;;;;9.18;4.10;;;17.90;99.90;;;;;;5070555;28;20037;-63
2023/07/01 02:00:35;;;;;;;8.38;4.00;;;17.90;99.90;;;;;;5071186;28;20438;-63
2023/07/01 02:03:01;;;;;;;7.10;3.70;;;17.80;99.90;;;;;;5060736;28;20129;-62
2023/07/01 02:05:27;;;;;;;9.52;4.30;;;17.90;99.90;;;;;;5067862;28;20124;-62
2023/07/01 02:07:53;;;;;;;6.53;3.80;;;17.90;99.90;;;;;;5070447;28;20071;-63
2023/07/01 02:10:22;;;;;;;6.97;3.70;;;17.90;99.90;;;;;;5067045;28;20040;-62
2023/07/01 02:12:47;;;;;;;10.95;3.78;;;17.90;99.90;;;;;;5061237;28;20047;-62
2023/07/01 02:15:13;;;;;;;8.10;4.00;;;17.80;99.90;;;;;;5070925;28;20044;-62
2023/07/01 02:17:39;;;;;;;7.53;3.97;;;17.70;99.90;;;;;;5071143;28;20048;-63
2023/07/01 02:20:05;;;;;;;9.98;4.22;;;17.60;99.90;;;;;;5059114;28;20084;-62
2023/07/01 02:22:31;;;;;;;8.80;3.97;;;17.50;99.90;;;;;;5070109;28;20040;-63
2023/07/01 02:24:56;;;;;;;6.13;4.20;;;17.30;99.90;;;;;;5054528;28;20051;-62
2023/07/01 02:27:22;;;;;;;9.43;4.43;;;17.20;99.90;;;;;;5071042;28;20043;-62
2023/07/01 02:29:48;;;;;;;8.15;4.13;;;17.10;99.90;;;;;;5065474;28;20073;-62
2023/07/01 02:32:14;;;;;;;7.82;4.50;;;17.00;99.90;;;;;;5074303;28;20044;-62
2023/07/01 02:34:40;;;;;;;7.30;4.05;;;17.00;99.90;;;;;;5073523;28;20033;-65
2023/07/01 02:37:05;;;;;;;7.10;4.32;;;17.00;99.90;;;;;;5056974;28;20078;-63
2023/07/01 02:39:31;;;;;;;10.00;4.32;;;17.00;99.90;;;;;;5071522;28;20123;-62
2023/07/01 02:41:56;;;;;;;6.30;3.95;;;17.00;99.90;;;;;;5075312;28;20119;-62
2023/07/01 02:44:22;;;;;;;9.27;4.35;;;17.00;99.90;;;;;;5070077;28;20499;-62
2023/07/01 02:46:48;;;;;;;8.60;4.53;;;17.10;99.90;;;;;;5073504;28;20080;-62
2023/07/01 02:49:14;;;;;;;8.02;4.20;;;17.10;99.90;;;;;;5074407;28;20028;-62
2023/07/01 02:51:41;;;;;;;8.40;4.18;;;17.10;99.90;;;;;;5066908;28;20032;-63
2023/07/01 02:54:07;;;;;;;7.47;4.00;;;17.10;99.90;;;;;;5070364;28;20473;-62
2023/07/01 02:56:33;;;;;;;6.25;3.92;;;17.20;99.90;;;;;;5073765;28;20044;-62
2023/07/01 02:58:58;;;;;;;10.20;4.28;;;17.20;99.90;;;;;;5056779;28;20505;-62
2023/07/01 03:01:24;;;;;;;5.68;3.95;;;17.20;99.90;;;;;;5063599;28;20490;-63
2023/07/01 03:03:49;;;;;;;6.82;4.00;;;17.20;99.90;;;;;;5065506;28;20043;-61
2023/07/01 03:06:16;;;;;;;8.40;4.18;;;17.20;99.90;;;;;;5073586;28;20040;-62
2023/07/01 03:08:42;;;;;;;6.57;4.25;;;17.10;99.90;;;;;;5069739;28;20051;-62
2023/07/01 03:11:07;;;;;;;6.18;4.28;;;17.00;99.90;;;;;;5062535;28;20112;-62
2023/07/01 03:13:33;;;;;;;6.78;4.03;;;16.90;99.90;;;;;;5071021;28;20114;-62
2023/07/01 03:16:00;;;;;;;6.57;3.85;;;16.80;99.90;;;;;;5074532;28;20044;-63
2023/07/01 03:18:26;;;;;;;7.13;4.13;;;16.80;99.90;;;;;;5070590;28;20040;-62
2023/07/01 03:20:51;;;;;;;7.15;4.32;;;16.80;99.90;;;;;;5066561;28;20043;-62
2023/07/01 03:23:17;;;;;;;8.15;4.43;;;16.90;99.90;;;;;;5069745;28;20121;-62
2023/07/01 03:25:43;;;;;;;6.60;4.18;;;17.00;99.90;;;;;;5066288;28;20391;-63
2023/07/01 03:28:08;;;;;;;7.30;4.18;;;17.10;99.90;;;;;;5064856;28;20024;-63
2023/07/01 03:30:34;;;;;;;11.35;4.00;;;17.10;99.90;;;;;;5073556;28;20426;-61
2023/07/01 03:33:00;;;;;;;6.00;4.15;;;17.10;99.90;;;;;;5074068;28;20150;-62
2023/07/01 03:35:27;;;;;;;8.70;3.80;;;17.20;99.90;;;;;;5061716;28;20041;-62
2023/07/01 03:37:52;;;;;;;6.78;3.70;;;17.30;99.90;;;;;;5070532;28;20750;-62
2023/07/01 03:40:18;;;;;;;7.28;3.60;;;17.40;99.90;;;;;;5073463;28;20040;-62
2023/07/01 03:42:44;;;;;;;8.27;3.90;;;17.40;99.90;;;;;;5059049;28;20056;-63
2023/07/01 03:45:11;;;;;;;8.07;3.70;;;17.40;99.90;;;;;;5054876;28;20115;-64
2023/07/01 03:47:42;;;;;;;7.95;3.80;;;17.40;99.90;;;;;;5069851;28;20041;-62
2023/07/01 03:50:07;;;;;;;7.43;3.60;;;17.40;99.90;;;;;;5073421;28;20048;-62
2023/07/01 03:52:34;;;;;;;6.47;3.55;;;17.40;99.90;;;;;;5059514;28;20111;-62
2023/07/01 03:55:00;;;;;;;8.52;3.72;;;17.40;99.90;;;;;;5067951;28;20025;-63
2023/07/01 03:57:25;;;;;;;8.95;3.83;;;17.30;99.90;;;;;;5055182;28;20052;-62
2023/07/01 03:59:51;;;;;;;6.63;3.17;;;17.20;99.90;;;;;;5065726;28;20025;-62
2023/07/01 04:02:17;;;;;;;5.20;3.80;;;17.20;99.90;;;;;;5067795;28;20505;-63
2023/07/01 04:04:42;;;;;;;7.03;3.80;;;17.20;99.90;;;;;;5068589;28;20087;-65
2023/07/01 04:07:08;;;;;;;8.75;3.80;;;17.10;99.90;;;;;;5061357;28;20040;-63
2023/07/01 04:09:34;;;;;;;7.93;4.18;;;16.90;99.90;;;;;;5051825;28;20055;-62
2023/07/01 04:11:59;;;;;;;7.22;4.22;;;16.60;99.90;;;;;;5055216;28;20041;-62
2023/07/01 04:14:25;;;;;;;7.85;4.82;;;16.50;99.90;;;;;;5062808;28;20036;-62
2023/07/01 04:16:51;;;;;;;8.20;4.22;;;16.30;99.90;;;;;;5067220;28;20503;-61
2023/07/01 04:19:17;;;;;;;6.70;4.50;;;16.20;99.90;;;;;;5070493;28;20097;-63
2023/07/01 04:21:42;;;;;;;12.80;5.03;;;16.10;99.90;;;;;;5072387;28;20040;-63
2023/07/01 04:24:08;;;;;;;9.88;4.65;;;16.10;99.90;;;;;;5071108;28;20055;-64
2023/07/01 04:26:34;;;;;;;8.75;4.35;;;16.00;99.90;;;;;;5066397;28;20048;-62
2023/07/01 04:29:01;;;;;;;8.80;4.70;;;16.10;99.90;;;;;;5067477;28;20508;-62
2023/07/01 04:31:26;;;;;;;7.93;5.05;;;16.10;99.90;;;;;;5057950;28;20037;-62
2023/07/01 04:33:52;;;;;;;7.65;4.53;;;16.10;99.90;;;;;;5047228;28;20033;-62
2023/07/01 04:36:18;;;;;;;9.98;5.25;;;16.10;99.90;;;;;;5048402;28;20037;-64
2023/07/01 04:38:43;;;;;;;6.65;4.15;;;16.10;99.90;;;;;;5055251;28;20051;-64
2023/07/01 04:41:10;;;;;;;7.72;4.45;;;16.00;99.90;;;;;;5063167;28;20045;-64
2023/07/01 04:43:35;;;;;;;6.55;4.13;;;16.10;99.90;;;;;;5059646;28;20103;-65
2023/07/01 04:46:01;;;;;;;8.75;4.40;;;16.10;99.90;;;;;;5047518;28;20586;-63
2023/07/01 04:48:27;;;;;;;8.27;4.60;;;16.10;99.90;;;;;;5055616;28;20043;-65
2023/07/01 04:50:53;;;;;;;7.85;4.45;;;16.10;99.90;;;;;;5048590;28;20052;-65
2023/07/01 04:53:19;;;;;;;8.43;4.90;;;16.10;99.90;;;;;;5049429;28;20040;-62
2023/07/01 04:55:45;;;;;;;9.80;4.80;;;16.00;99.90;;;;;;5051498;28;20098;-62
2023/07/01 04:58:11;;;;;;;7.60;4.93;;;16.00;99.90;;;;;;5040540;28;20048;-64
2023/07/01 05:00:37;;;;;;;10.65;5.40;;;16.10;99.90;;;;;;5035972;28;20040;-63
2023/07/01 05:03:04;;;;;;;10.38;4.93;;;16.00;99.90;;;;;;5058952;28;20131;-63
2023/07/01 05:05:30;;;;;;;9.70;5.22;;;16.00;99.90;;;;;;5055431;28;20041;-64
2023/07/01 05:07:55;;;;;;;10.85;5.15;;;16.00;99.90;;;;;;5051191;28;20912;-63
2023/07/01 05:10:22;;;;;;;7.80;4.80;;;16.00;99.90;;;;;;5059464;28;20047;-64
2023/07/01 05:12:51;;;;;;;12.25;5.47;;;16.00;99.90;;;;;;5058759;28;20045;-64
2023/07/01 05:15:17;;;;;;;8.27;4.80;;;16.00;99.90;;;;;;5052882;28;20087;-63
2023/07/01 05:17:43;;;;;;;12.10;5.45;;;16.10;99.90;;;;;;5040522;28;20048;-66
2023/07/01 05:20:10;;;;;;;9.82;5.35;;;16.10;99.90;;;;;;5059819;28;20383;-66
2023/07/01 05:22:36;;;;;;;8.60;5.07;;;16.20;99.90;;;;;;5046169;28;20071;-63
2023/07/01 05:25:03;;;;;;;9.70;4.65;;;16.20;99.90;;;;;;5050128;28;20032;-62
2023/07/01 05:27:29;;;;;;;6.28;4.85;;;16.30;99.90;;;;;;5059225;28;20037;-64
2023/07/01 05:29:56;;;;;;;8.43;4.60;;;16.30;99.90;;;;;;5058737;28;20040;-65
2023/07/01 05:32:21;;;;;;;8.43;4.97;;;16.40;99.90;;;;;;5048378;28;20509;-64
2023/07/01 05:34:47;;;;;;;8.57;4.85;;;16.40;99.90;;;;;;5058907;28;20033;-64
2023/07/01 05:37:13;;;;;;;9.15;5.03;;;16.50;99.90;;;;;;5058731;28;20041;-64
2023/07/01 05:39:38;;;;;;;8.07;4.93;;;16.50;99.90;;;;;;5041406;28;20133;-66
2023/07/01 05:42:05;;;;;;;13.25;4.97;;;16.50;99.90;;;;;;5038420;28;20044;-63
2023/07/01 05:44:30;;;;;;;7.03;4.35;;;16.50;99.90;;;;;;5059194;28;20139;-65
2023/07/01 05:46:56;;;;;;;8.43;4.70;;;16.50;99.90;;;;;;5056029;28;20161;-64
2023/07/01 05:49:22;;;;;;;7.35;5.00;;;16.60;99.90;;;;;;5051395;28;20241;-62
2023/07/01 05:51:48;;;;;;;9.52;4.20;;;16.70;99.90;;;;;;5057954;28;20032;-66
2023/07/01 05:54:13;;;;;;;8.48;4.80;;;16.70;99.90;;;;;;5059151;28;20076;-63
2023/07/01 05:56:39;;;;;;;7.68;4.70;;;16.70;99.90;;;;;;5050437;28;20123;-62
2023/07/01 05:59:05;;;;;;;7.00;4.72;;;16.70;99.90;;;;;;5056381;28;20037;-63
2023/07/01 06:01:30;;;;;;;8.07;4.70;;;16.80;99.90;;;;;;5058809;28;20040;-62
2023/07/01 06:03:56;;;;;;;6.95;4.80;;;16.80;99.90;;;;;;5058382;28;20044;-63
2023/07/01 06:06:22;;;;;;;8.15;4.97;;;16.80;99.90;;;;;;5037340;28;20044;-63
2023/07/01 06:08:48;;;;;;;7.72;5.28;;;16.90;99.90;;;;;;5056092;28;20078;-64
2023/07/01 06:11:15;;;;;;;8.93;5.45;;;16.80;99.90;;;;;;5057961;28;20044;-63
2023/07/01 06:13:47;;;;;;;7.40;5.30;;;16.80;99.90;;;;;;5050906;28;20472;-65
2023/07/01 06:16:14;;;;;;;9.95;5.97;;;16.80;99.90;;;;;;5038164;28;20051;-63
2023/07/01 06:18:41;;;;;;;7.72;5.50;;;16.80;99.90;;;;;;5023451;28;20041;-62
2023/07/01 06:21:06;;;;;;;9.07;5.70;;;16.80;99.90;;;;;;5055119;28;20044;-66
2023/07/01 06:23:38;;;;;;;11.10;6.05;;;16.80;99.90;;;;;;5050837;28;20037;-62
2023/07/01 06:26:05;;;;;;;9.77;5.68;;;16.80;99.90;;;;;;5053886;28;20107;-64
2023/07/01 06:28:31;;;;;;;10.13;5.70;;;16.80;99.90;;;;;;5052677;28;20135;-64
2023/07/01 06:30:56;;;;;;;9.90;5.75;;;16.80;99.90;;;;;;5048239;28;20028;-62
2023/07/01 06:33:22;;;;;;;8.93;5.20;;;16.80;99.90;;;;;;5056480;28;20105;-63
2023/07/01 06:35:48;;;;;;;7.22;5.25;;;16.80;99.90;;;;;;5057219;28;20505;-63
2023/07/01 06:38:13;;;;;;;7.95;5.25;;;16.80;99.90;;;;;;5048744;28;20052;-63
2023/07/01 06:40:39;;;;;;;8.75;5.65;;;16.80;99.90;;;;;;5057278;28;20093;-64
2023/07/01 06:43:05;;;;;;;8.10;5.70;;;16.80;99.90;;;;;;5007517;28;20056;-61
2023/07/01 06:45:31;;;;;;;8.52;5.57;;;16.80;99.90;;;;;;5047569;28;20037;-65
2023/07/01 06:47:58;;;;;;;8.85;5.53;;;16.80;99.90;;;;;;5052736;28;20029;-65
2023/07/01 06:50:23;;;;;;;8.85;6.05;;;16.80;99.90;;;;;;5057776;28;20040;-66
2023/07/01 06:52:49;;;;;;;10.32;5.93;;;16.80;99.90;;;;;;5057816;28;20192;-64
2023/07/01 06:55:15;;;;;;;10.43;6.25;;;16.80;99.90;;;;;;5052056;28;20052;-63
2023/07/01 06:57:42;;;;;;;11.65;5.90;;;16.80;99.90;;;;;;5056610;28;20040;-65
2023/07/01 07:00:10;;;;;;;9.63;6.40;;;16.80;99.90;;;;;;5054561;28;20605;-66
2023/07/01 07:02:35;;;;;;;9.32;6.20;;;16.80;99.90;;;;;;5052580;28;20071;-63
2023/07/01 07:05:03;;;;;;;7.63;6.25;;;16.80;99.90;;;;;;5055082;28;20064;-63
2023/07/01 07:07:29;;;;;;;11.73;6.13;;;16.80;99.90;;;;;;5068389;28;20141;-65
2023/07/01 07:09:54;;;;;;;10.77;6.47;;;16.80;99.90;;;;;;5062918;28;20120;-64
2023/07/01 07:12:20;;;;;;;8.13;6.25;;;16.90;99.90;;;;;;5059485;28;20049;-65
2023/07/01 07:14:46;;;;;;;10.57;6.63;;;16.90;99.90;;;;;;5053463;28;20048;-63
2023/07/01 07:17:12;;;;;;;9.38;6.05;;;16.90;99.90;;;;;;5063049;28;20131;-63
2023/07/01 07:19:37;;;;;;;9.70;6.63;;;16.90;99.90;;;;;;5047206;28;20052;-64
2023/07/01 07:22:04;;;;;;;9.27;6.45;;;16.90;99.90;;;;;;5053072;28;20051;-64
2023/07/01 07:24:29;;;;;;;11.65;6.32;;;16.90;99.90;;;;;;5052599;28;20033;-64
2023/07/01 07:26:57;;;;;;;8.80;6.53;;;16.90;99.90;;;;;;5066463;28;20094;-63
2023/07/01 07:29:24;;;;;;;9.55;6.25;;;16.90;99.90;;;;;;5047066;28;20287;-64
2023/07/01 07:31:50;;;;;;;10.57;6.07;;;17.00;99.90;;;;;;5058631;28;20060;-64
2023/07/01 07:34:16;;;;;;;8.70;6.32;;;16.90;99.90;;;;;;5062048;28;20036;-64
2023/07/01 07:36:43;;;;;;;8.77;6.53;;;17.00;99.90;;;;;;5056780;28;20043;-63
2023/07/01 07:39:12;;;;;;;8.40;6.40;;;17.00;99.90;;;;;;5061677;28;20033;-64
2023/07/01 07:41:39;;;;;;;8.25;6.53;;;17.00;99.90;;;;;;5062890;28;20123;-64
2023/07/01 07:44:04;;;;;;;7.65;5.93;;;17.00;99.90;;;;;;5059208;28;20072;-64
2023/07/01 07:46:30;;;;;;;11.20;6.82;;;17.10;99.90;;;;;;5069545;28;20060;-63
2023/07/01 07:48:55;;;;;;;9.98;6.85;;;17.10;99.90;;;;;;5037049;28;20454;-64
2023/07/01 07:51:21;;;;;;;8.88;6.90;;;17.10;99.90;;;;;;5042449;28;20047;-63
2023/07/01 07:53:47;;;;;;;8.27;6.32;;;17.20;99.90;;;;;;5042266;28;20048;-64
2023/07/01 07:56:13;;;;;;;8.73;6.43;;;17.20;99.90;;;;;;5064598;28;20033;-64
2023/07/01 07:58:38;;;;;;;10.43;6.35;;;17.20;99.90;;;;;;5065143;28;20094;-63
2023/07/01 08:01:04;;;;;;;9.18;5.82;;;17.20;99.90;;;;;;5068713;28;20419;-63
2023/07/01 08:03:29;;;;;;;8.90;5.95;;;17.30;99.90;;;;;;5058372;28;20045;-64
2023/07/01 08:05:55;;;;;;;10.60;6.85;;;17.30;99.90;;;;;;5051305;28;20032;-63
2023/07/01 08:08:21;;;;;;;8.45;5.82;;;17.40;99.90;;;;;;5061602;28;20037;-63
2023/07/01 08:10:47;;;;;;;8.88;6.30;;;17.40;99.90;;;;;;5063010;28;20050;-64
2023/07/01 08:13:13;;;;;;;9.48;6.28;;;17.50;99.90;;;;;;5071439;28;20040;-65
2023/07/01 08:15:40;;;;;;;10.18;5.90;;;17.50;99.90;;;;;;5067697;28;20041;-63
2023/07/01 08:18:06;;;;;;;7.78;5.57;;;17.60;99.90;;;;;;5072154;28;20376;-64
2023/07/01 08:20:31;;;;;;;7.05;5.85;;;17.60;99.90;;;;;;5072652;28;20044;-63
2023/07/01 08:22:57;;;;;;;6.75;5.85;;;17.60;99.90;;;;;;5061310;28;20040;-63
2023/07/01 08:25:23;;;;;;;7.55;6.43;;;17.60;99.90;;;;;;5065864;28;20044;-64
2023/07/01 08:27:48;;;;;;;11.85;6.32;;;17.60;99.90;;;;;;5065748;28;20045;-64
2023/07/01 08:30:14;;;;;;;7.05;5.38;;;17.50;99.90;;;;;;5072127;28;20029;-63
2023/07/01 08:32:40;;;;;;;7.47;5.45;;;17.60;99.90;;;;;;5072452;28;20615;-63
2023/07/01 08:35:06;;;;;;;8.25;5.95;;;17.50;99.90;;;;;;5065742;28;20040;-63
2023/07/01 08:37:33;;;;;;;7.30;5.93;;;17.50;99.90;;;;;;5070366;28;20117;-63
2023/07/01 08:39:59;;;;;;;8.32;5.35;;;17.60;99.90;;;;;;5072266;28;20052;-64
2023/07/01 08:42:31;;;;;;;7.20;5.65;;;17.60;99.90;;;;;;5060003;28;20049;-63
2023/07/01 08:44:57;;;;;;;7.85;5.80;;;17.60;99.90;;;;;;5066493;28;20093;-63
2023/07/01 08:47:25;;;;;;;8.02;5.57;;;17.60;99.90;;;;;;5071375;28;20043;-63
2023/07/01 08:49:54;;;;;;;7.90;5.20;;;17.60;99.90;;;;;;5071715;28;20029;-63
2023/07/01 08:52:24;;;;;;;7.85;5.68;;;17.70;99.90;;;;;;5064055;28;20382;-65
2023/07/01 08:54:52;;;;;;;9.63;5.90;;;17.70;99.90;;;;;;5061247;28;20098;-64
2023/07/01 08:57:18;;;;;;;6.85;5.40;;;17.60;99.90;;;;;;5071537;28;20119;-64
2023/07/01 08:59:46;;;;;;;7.70;6.00;;;17.70;99.90;;;;;;5064084;28;20048;-64
2023/07/01 09:02:13;;;;;;;8.57;5.65;;;17.70;99.90;;;;;;5058547;28;20449;-64
2023/07/01 09:04:39;;;;;;;7.10;5.50;;;17.70;99.90;;;;;;5061123;28;20087;-64
2023/07/01 09:07:05;;;;;;;8.57;5.93;;;17.80;99.90;;;;;;5060580;28;20047;-64
2023/07/01 09:09:31;;;;;;;6.32;5.40;;;17.80;99.90;;;;;;5061633;28;20539;-64
2023/07/01 09:11:56;;;;;;;9.23;5.80;;;17.90;99.90;;;;;;5071525;28;20120;-64
2023/07/01 09:14:22;;;;;;;6.90;5.60;;;17.90;99.90;;;;;;5071933;28;20041;-64
2023/07/01 09:16:48;;;;;;;7.20;4.85;;;17.90;99.90;;;;;;5061983;28;20047;-63
2023/07/01 09:19:16;;;;;;;7.68;5.75;;;18.00;99.90;;;;;;5070737;28;20068;-64
2023/07/01 09:52:53;;;;;;;7.15;5.38;;;18.00;99.90;;;;;;5024621;28;20483;-68
2023/07/01 10:04:14;;;;;;;7.50;5.13;;;18.20;99.90;;;;;;5127031;22;20533;-70
2023/07/01 10:06:44;;;;;;;7.57;5.72;;;18.10;99.90;;;;;;5032246;28;20041;-68
2023/07/01 10:09:09;;;;;;;7.47;5.20;;;18.20;99.90;;;;;;5024804;28;20358;-69
2023/07/01 10:11:35;;;;;;;7.57;5.97;;;18.30;99.90;;;;;;5038453;28;20067;-68
2023/07/01 10:17:50;;;;;;;7.85;5.38;;;18.30;99.90;;;;;;5080344;22;20525;-63
2023/07/01 10:20:34;;;;;;;7.18;5.32;;;18.30;99.90;;;;;;5064160;28;20041;-63
2023/07/01 10:23:03;;;;;;;8.13;5.25;;;18.20;99.90;;;;;;5042407;28;20106;-63
2023/07/01 10:25:34;;;;;;;7.88;5.82;;;18.40;99.90;;;;;;5063304;28;20044;-64
2023/07/01 10:28:00;;;;;;;6.70;5.70;;;18.60;99.90;;;;;;5042668;28;20158;-64
2023/07/01 10:30:26;;;;;;;9.68;5.47;;;18.70;99.90;;;;;;5067341;28;20131;-63
2023/07/01 10:32:52;;;;;;;7.28;5.43;;;18.80;99.90;;;;;;5063462;28;20033;-62
2023/07/01 10:35:18;;;;;;;7.88;5.63;;;18.80;99.90;;;;;;5061182;28;20043;-62
2023/07/01 10:38:05;;;;;;;9.57;5.38;;;18.90;99.90;;;;;;5050712;28;20083;-62
2023/07/01 10:40:30;;;;;;;7.43;5.07;;;18.80;99.90;;;;;;5054468;28;20044;-62
2023/07/01 10:43:18;;;;;;;7.45;4.78;;;18.90;99.90;;;;;;5057676;28;20206;-62
2023/07/01 10:45:43;;;;;;;6.28;4.57;;;19.00;99.90;;;;;;5060695;28;20044;-62
2023/07/01 10:48:13;;;;;;;6.10;4.72;;;19.10;99.90;;;;;;5061841;28;20055;-63
2023/07/01 10:51:05;;;;;;;7.03;4.63;;;19.20;99.90;;;;;;5067787;28;20150;-64
2023/07/01 10:53:30;;;;;;;;;;;19.20;99.90;;;;;;5057183;28;20063;-62
2023/07/01 10:56:13;;;;;;;7.00;5.20;;;19.30;99.90;;;;;;5053393;28;20437;-62
2023/07/01 10:58:39;;;;;;;6.07;4.65;;;19.20;99.90;;;;;;5071736;28;20036;-62
2023/07/01 11:01:05;;;;;;;8.23;4.93;;;19.20;99.90;;;;;;5066411;28;20032;-62
2023/07/01 11:03:36;;;;;;;7.10;4.57;;;19.20;99.90;;;;;;5063202;28;20075;-63
2023/07/01 11:06:10;;;;;;;5.85;4.00;;;19.10;99.90;;;;;;5065335;28;20414;-62
2023/07/01 11:08:47;;;;;;;5.47;4.25;;;19.20;99.90;;;;;;5066254;28;20055;-64
2023/07/01 11:11:22;;;;;;;6.18;4.13;;;19.20;99.90;;;;;;5073246;28;20029;-63
2023/07/01 11:13:57;;;;;;;5.15;4.03;;;19.30;99.90;;;;;;5060849;28;20046;-62
2023/07/01 11:16:24;;;;;;;4.85;4.13;;;19.30;99.90;;;;;;5053692;28;20036;-62
2023/07/01 11:18:51;;;;;;;5.45;4.72;;;19.30;99.90;;;;;;5051476;28;20182;-62
2023/07/01 11:21:20;;;;;;;5.47;4.20;;;19.30;99.90;;;;;;5054756;28;20489;-63
2023/07/01 11:24:03;;;;;;;6.28;4.30;;;19.40;99.90;;;;;;5055453;28;20041;-63
2023/07/01 11:26:36;;;;;;;4.85;3.95;;;19.50;99.90;;;;;;5051882;28;20116;-63
2023/07/01 11:29:07;;;;;;;5.00;4.00;;;19.50;99.90;;;;;;5044207;28;20569;-65
2023/07/01 11:31:34;;;;;;;5.57;4.45;;;19.60;99.90;;;;;;5052772;28;21048;-63
2023/07/01 11:34:01;;;;;;;5.75;4.07;;;19.70;99.90;;;;;;5039864;28;20132;-62
2023/07/01 11:36:36;;;;;;;5.10;4.10;;;19.70;99.90;;;;;;5049678;28;20131;-65
2023/07/01 11:39:10;;;;;;;5.95;4.53;;;19.80;99.90;;;;;;5045112;28;20110;-65
2023/07/01 11:41:38;;;;;;;5.63;4.32;;;19.90;99.90;;;;;;5050431;28;20048;-62
2023/07/01 11:44:11;;;;;;;6.93;4.57;;;19.90;99.90;;;;;;5043450;28;20041;-63
2023/07/01 11:46:42;;;;;;;7.15;5.03;;;20.00;99.90;;;;;;5044226;28;20051;-63
2023/07/01 11:49:23;;;;;;;6.65;4.80;;;20.30;99.90;;;;;;5045787;28;20048;-65
2023/07/01 11:51:49;;;;;;;;;;;20.50;99.90;;;;;;5048456;28;20541;-65
2023/07/01 11:54:17;;;;;;;6.47;5.13;;;20.60;99.90;;;;;;5048220;28;19929;-65
2023/07/01 11:56:44;;;;;;;7.10;5.18;;;20.80;99.90;;;;;;5031925;28;20119;-62
2023/07/01 11:59:10;;;;;;;5.97;4.80;;;20.80;99.90;;;;;;5045522;28;20072;-63
2023/07/01 12:01:40;;;;;;;5.40;4.40;;;20.90;99.90;;;;;;5048887;28;20032;-64
2023/07/01 12:04:16;;;;;;;6.32;4.35;;;20.60;99.90;;;;;;5045653;28;20511;-62
2023/07/01 12:06:42;;;;;;;6.88;5.30;;;20.30;99.90;;;;;;5045933;28;20037;-63
2023/07/01 12:09:08;;;;;;;7.07;5.20;;;20.10;99.90;;;;;;5045504;28;20042;-64
2023/07/01 12:11:46;;;;;;;7.95;5.40;;;20.10;99.90;;;;;;5045053;28;20127;-63
2023/07/01 12:14:19;;;;;;;9.52;5.72;;;20.00;99.90;;;;;;5049813;28;20033;-64
2023/07/01 12:16:47;;;;;;;7.50;5.18;;;20.10;99.90;;;;;;5034643;28;20099;-62
2023/07/01 12:19:14;;;;;;;8.20;4.93;;;20.00;99.90;;;;;;5043832;28;20273;-62
2023/07/01 12:21:40;;;;;;;6.20;4.90;;;19.90;99.90;;;;;;5044228;28;20055;-64
2023/07/01 12:24:27;;;;;;;6.72;4.97;;;19.90;99.90;;;;;;5047701;28;20087;-64
2023/07/01 12:26:54;;;;;;;6.72;5.25;;;20.00;99.90;;;;;;5049729;28;20044;-63
2023/07/01 12:29:22;;;;;;;7.10;4.95;;;20.20;99.90;;;;;;5042926;28;20082;-63
2023/07/01 12:31:48;;;;;;;7.50;4.45;;;20.30;99.90;;;;;;5050958;28;20040;-65
2023/07/01 12:34:14;;;;;;;5.65;4.03;;;20.50;99.90;;;;;;5050355;28;20059;-64
2023/07/01 12:36:42;;;;;;;5.30;4.28;;;20.60;99.90;;;;;;5047099;28;20039;-61
2023/07/01 12:39:08;;;;;;;5.80;3.95;;;20.60;99.90;;;;;;5047178;28;20094;-65
2023/07/01 12:41:37;;;;;;;5.78;4.10;;;20.40;99.90;;;;;;5052178;28;20044;-63
2023/07/01 12:44:05;;;;;;;8.68;3.97;;;20.20;99.90;;;;;;5041387;28;20123;-65
2023/07/01 12:46:31;;;;;;;6.05;3.90;;;20.10;99.90;;;;;;5052362;28;20039;-65
2023/07/01 12:48:57;;;;;;;5.93;3.15;;;20.10;99.90;;;;;;5044638;28;20415;-62
2023/07/01 12:51:23;;;;;;;4.13;3.13;;;20.20;99.90;;;;;;5042279;28;20041;-65
2023/07/01 12:53:49;;;;;;;6.22;3.60;;;20.50;99.90;;;;;;5053452;28;20143;-63
2023/07/01 12:56:15;;;;;;;5.20;3.70;;;20.90;99.90;;;;;;5049890;28;20989;-66
2023/07/01 12:58:40;;;;;;;5.05;3.97;;;21.10;99.90;;;;;;5049950;28;20032;-65
2023/07/01 13:01:06;;;;;;;5.80;4.28;;;21.10;99.90;;;;;;5053472;28;20036;-66
2023/07/01 13:03:33;;;;;;;5.82;4.47;;;21.10;99.90;;;;;;5058926;28;20047;-65
2023/07/01 13:05:59;;;;;;;5.63;4.53;;;20.90;99.90;;;;;;5053375;28;20025;-63
2023/07/01 13:08:25;;;;;;;8.32;4.90;;;20.70;99.90;;;;;;5055683;28;20520;-66
2023/07/01 13:10:51;;;;;;;5.82;4.13;;;20.80;99.90;;;;;;5043941;28;20028;-66
2023/07/01 13:13:16;;;;;;;6.15;4.50;;;20.60;99.90;;;;;;5059817;28;20394;-66
2023/07/01 13:15:47;;;;;;;6.55;4.75;;;20.60;99.90;;;;;;5070940;28;20074;-65
2023/07/01 13:18:19;;;;;;;8.03;5.40;;;20.60;99.90;;;;;;5071553;28;20097;-66
2023/07/01 13:20:45;;;;;;;8.10;5.30;;;20.70;99.90;;;;;;5052287;28;20299;-62
2023/07/01 13:23:10;;;;;;;9.52;5.57;;;20.80;99.90;;;;;;5047429;28;20052;-66
2023/07/01 13:25:36;;;;;;;9.02;6.07;;;21.00;99.90;;;;;;5056990;28;20033;-63
2023/07/01 13:28:03;;;;;;;7.20;5.80;;;21.10;99.90;;;;;;5063124;28;20043;-66
2023/07/01 13:30:50;;;;;;;11.23;5.88;;;21.60;99.90;;;;;;5070479;28;20487;-66